Zerbe, Pennsylvania
Current Conditions -  °F | °C
As of 3:58 PM on Saturday 25 Oct 2014 (Local Time) from KMUI Reporting Station
Few Clouds Few Clouds  
Wind Chill: 69°   Ceiling: Unl
Heat Index: 69°   Visibility: 10mi
Dew Point: 46°   Wind: 16mph
Humidity: 44%   Direction: 240°WSW
Pressure: 29.72"   Gusts: NA
Location:  40.6079°N, 76.4334°W
Report Text: KMUI 251958Z AUTO 24014KT 10SM FEW070 20/08 A2972 RMK AO2 SLP066 T02040079 $
Loading
Personal Weather Stations






























Interactive Weather Map
Tropical Storm Tracking
New forecast layout! Learn more

10-Day Weather Forecast

Advertisements
Track Severe Weather on mobile